sensor_id;sensor_type;location;lat;lon;timestamp;P1;durP1;ratioP1;P2;durP2;ratioP2
66012;SDS011;52783;50.502;8.190;2023-06-14T00:01:01;5.45;;;3.67;;
66012;SDS011;52783;50.502;8.190;2023-06-14T00:03:28;6.72;;;3.83;;
66012;SDS011;52783;50.502;8.190;2023-06-14T00:05:54;10.23;;;3.50;;
66012;SDS011;52783;50.502;8.190;2023-06-14T00:08:22;9.35;;;4.30;;
66012;SDS011;52783;50.502;8.190;2023-06-14T00:10:49;5.88;;;3.78;;
66012;SDS011;52783;50.502;8.190;2023-06-14T00:13:15;8.13;;;3.50;;
66012;SDS011;52783;50.502;8.190;2023-06-14T00:15:41;8.02;;;4.05;;
66012;SDS011;52783;50.502;8.190;2023-06-14T00:18:07;5.25;;;3.50;;
66012;SDS011;52783;50.502;8.190;2023-06-14T00:20:36;4.00;;;3.45;;
66012;SDS011;52783;50.502;8.190;2023-06-14T00:23:02;6.93;;;3.80;;
66012;SDS011;52783;50.502;8.190;2023-06-14T00:25:28;5.85;;;3.67;;
66012;SDS011;52783;50.502;8.190;2023-06-14T00:27:54;7.85;;;3.85;;
66012;SDS011;52783;50.502;8.190;2023-06-14T00:30:20;6.25;;;3.72;;
66012;SDS011;52783;50.502;8.190;2023-06-14T00:32:46;8.80;;;3.90;;
66012;SDS011;52783;50.502;8.190;2023-06-14T00:35:12;5.63;;;3.47;;
66012;SDS011;52783;50.502;8.190;2023-06-14T00:37:38;9.52;;;3.65;;
66012;SDS011;52783;50.502;8.190;2023-06-14T00:40:04;11.18;;;3.72;;
66012;SDS011;52783;50.502;8.190;2023-06-14T00:42:30;7.47;;;3.65;;
66012;SDS011;52783;50.502;8.190;2023-06-14T00:44:56;7.43;;;3.58;;
66012;SDS011;52783;50.502;8.190;2023-06-14T00:47:22;10.82;;;3.40;;
66012;SDS011;52783;50.502;8.190;2023-06-14T00:49:51;10.90;;;4.03;;
66012;SDS011;52783;50.502;8.190;2023-06-14T00:52:18;4.72;;;3.60;;
66012;SDS011;52783;50.502;8.190;2023-06-14T00:54:44;5.22;;;3.65;;
66012;SDS011;52783;50.502;8.190;2023-06-14T00:57:10;5.03;;;3.35;;
66012;SDS011;52783;50.502;8.190;2023-06-14T00:59:38;6.93;;;3.85;;
66012;SDS011;52783;50.502;8.190;2023-06-14T01:02:08;8.50;;;3.45;;
66012;SDS011;52783;50.502;8.190;2023-06-14T01:04:33;7.60;;;3.33;;
66012;SDS011;52783;50.502;8.190;2023-06-14T01:07:13;5.75;;;3.13;;
66012;SDS011;52783;50.502;8.190;2023-06-14T01:10:12;8.05;;;3.65;;
66012;SDS011;52783;50.502;8.190;2023-06-14T01:13:03;8.50;;;3.47;;
66012;SDS011;52783;50.502;8.190;2023-06-14T01:15:38;9.43;;;3.35;;
66012;SDS011;52783;50.502;8.190;2023-06-14T01:18:05;6.80;;;3.95;;
66012;SDS011;52783;50.502;8.190;2023-06-14T01:20:32;6.35;;;3.80;;
66012;SDS011;52783;50.502;8.190;2023-06-14T01:23:01;10.15;;;3.20;;
66012;SDS011;52783;50.502;8.190;2023-06-14T01:25:27;13.15;;;3.15;;
66012;SDS011;52783;50.502;8.190;2023-06-14T01:27:53;9.45;;;3.58;;
66012;SDS011;52783;50.502;8.190;2023-06-14T01:30:23;18.48;;;3.85;;
66012;SDS011;52783;50.502;8.190;2023-06-14T01:32:50;4.38;;;3.05;;
66012;SDS011;52783;50.502;8.190;2023-06-14T01:35:17;6.47;;;3.50;;
66012;SDS011;52783;50.502;8.190;2023-06-14T01:37:43;15.98;;;3.45;;
66012;SDS011;52783;50.502;8.190;2023-06-14T01:40:11;7.32;;;3.30;;
66012;SDS011;52783;50.502;8.190;2023-06-14T01:42:38;5.03;;;3.30;;
66012;SDS011;52783;50.502;8.190;2023-06-14T01:45:05;7.32;;;3.30;;
66012;SDS011;52783;50.502;8.190;2023-06-14T01:47:31;10.18;;;3.33;;
66012;SDS011;52783;50.502;8.190;2023-06-14T01:49:58;4.75;;;3.22;;
66012;SDS011;52783;50.502;8.190;2023-06-14T01:52:24;6.88;;;3.40;;
66012;SDS011;52783;50.502;8.190;2023-06-14T01:54:50;7.78;;;3.45;;
66012;SDS011;52783;50.502;8.190;2023-06-14T01:57:16;14.18;;;3.38;;
66012;SDS011;52783;50.502;8.190;2023-06-14T01:59:41;12.45;;;3.42;;
66012;SDS011;52783;50.502;8.190;2023-06-14T02:02:07;7.88;;;3.10;;
66012;SDS011;52783;50.502;8.190;2023-06-14T02:04:32;6.25;;;3.30;;
66012;SDS011;52783;50.502;8.190;2023-06-14T02:06:58;6.50;;;3.50;;
66012;SDS011;52783;50.502;8.190;2023-06-14T02:09:23;13.27;;;3.17;;
66012;SDS011;52783;50.502;8.190;2023-06-14T02:11:49;5.68;;;3.45;;
66012;SDS011;52783;50.502;8.190;2023-06-14T02:14:14;6.35;;;3.17;;
66012;SDS011;52783;50.502;8.190;2023-06-14T02:16:41;5.57;;;3.03;;
66012;SDS011;52783;50.502;8.190;2023-06-14T02:19:13;9.98;;;3.13;;
66012;SDS011;52783;50.502;8.190;2023-06-14T02:21:42;5.57;;;3.47;;
66012;SDS011;52783;50.502;8.190;2023-06-14T02:24:08;6.20;;;2.85;;
66012;SDS011;52783;50.502;8.190;2023-06-14T02:26:35;11.48;;;3.50;;
66012;SDS011;52783;50.502;8.190;2023-06-14T02:29:02;17.73;;;3.38;;
66012;SDS011;52783;50.502;8.190;2023-06-14T02:31:28;8.75;;;3.58;;
66012;SDS011;52783;50.502;8.190;2023-06-14T02:33:54;6.82;;;3.60;;
66012;SDS011;52783;50.502;8.190;2023-06-14T02:36:20;8.27;;;2.92;;
66012;SDS011;52783;50.502;8.190;2023-06-14T02:38:45;6.15;;;3.05;;
66012;SDS011;52783;50.502;8.190;2023-06-14T02:41:12;9.63;;;3.55;;
66012;SDS011;52783;50.502;8.190;2023-06-14T02:43:37;7.30;;;3.33;;
66012;SDS011;52783;50.502;8.190;2023-06-14T02:46:03;8.00;;;3.30;;
66012;SDS011;52783;50.502;8.190;2023-06-14T02:48:28;10.52;;;3.25;;
66012;SDS011;52783;50.502;8.190;2023-06-14T02:50:54;4.95;;;3.10;;
66012;SDS011;52783;50.502;8.190;2023-06-14T02:53:21;18.13;;;3.10;;
66012;SDS011;52783;50.502;8.190;2023-06-14T02:55:47;7.55;;;3.00;;
66012;SDS011;52783;50.502;8.190;2023-06-14T02:58:16;8.07;;;3.58;;
66012;SDS011;52783;50.502;8.190;2023-06-14T03:00:45;11.27;;;3.47;;
66012;SDS011;52783;50.502;8.190;2023-06-14T03:03:10;6.78;;;3.45;;
66012;SDS011;52783;50.502;8.190;2023-06-14T03:05:41;5.85;;;3.08;;
66012;SDS011;52783;50.502;8.190;2023-06-14T03:08:11;9.80;;;3.60;;
66012;SDS011;52783;50.502;8.190;2023-06-14T03:10:41;8.82;;;3.40;;
66012;SDS011;52783;50.502;8.190;2023-06-14T03:13:08;7.03;;;3.65;;
66012;SDS011;52783;50.502;8.190;2023-06-14T03:15:35;7.60;;;3.22;;
66012;SDS011;52783;50.502;8.190;2023-06-14T03:18:01;10.95;;;3.42;;
66012;SDS011;52783;50.502;8.190;2023-06-14T03:20:28;4.57;;;3.22;;
66012;SDS011;52783;50.502;8.190;2023-06-14T03:22:54;4.72;;;3.40;;
66012;SDS011;52783;50.502;8.190;2023-06-14T03:25:20;10.48;;;3.53;;
66012;SDS011;52783;50.502;8.190;2023-06-14T03:27:46;8.75;;;3.40;;
66012;SDS011;52783;50.502;8.190;2023-06-14T03:30:12;8.43;;;3.38;;
66012;SDS011;52783;50.502;8.190;2023-06-14T03:32:38;15.13;;;3.42;;
66012;SDS011;52783;50.502;8.190;2023-06-14T03:35:04;6.95;;;3.50;;
66012;SDS011;52783;50.502;8.190;2023-06-14T03:37:31;4.47;;;3.10;;
66012;SDS011;52783;50.502;8.190;2023-06-14T03:39:56;8.43;;;3.42;;
66012;SDS011;52783;50.502;8.190;2023-06-14T03:42:22;5.90;;;3.17;;
66012;SDS011;52783;50.502;8.190;2023-06-14T03:44:47;4.70;;;3.30;;
66012;SDS011;52783;50.502;8.190;2023-06-14T03:47:13;5.47;;;3.13;;
66012;SDS011;52783;50.502;8.190;2023-06-14T03:49:38;13.75;;;3.10;;
66012;SDS011;52783;50.502;8.190;2023-06-14T03:52:04;5.50;;;3.10;;
66012;SDS011;52783;50.502;8.190;2023-06-14T03:54:30;12.30;;;3.35;;
66012;SDS011;52783;50.502;8.190;2023-06-14T03:56:57;14.98;;;3.70;;
66012;SDS011;52783;50.502;8.190;2023-06-14T03:59:23;8.10;;;3.13;;
66012;SDS011;52783;50.502;8.190;2023-06-14T04:01:50;11.32;;;3.47;;
66012;SDS011;52783;50.502;8.190;2023-06-14T04:04:16;10.98;;;3.40;;
66012;SDS011;52783;50.502;8.190;2023-06-14T04:06:42;4.95;;;2.90;;
66012;SDS011;52783;50.502;8.190;2023-06-14T04:09:07;6.85;;;3.10;;
66012;SDS011;52783;50.502;8.190;2023-06-14T04:11:33;4.22;;;3.20;;
66012;SDS011;52783;50.502;8.190;2023-06-14T04:13:59;7.57;;;2.78;;
66012;SDS011;52783;50.502;8.190;2023-06-14T04:16:25;11.80;;;3.17;;
66012;SDS011;52783;50.502;8.190;2023-06-14T04:18:51;5.53;;;3.22;;
66012;SDS011;52783;50.502;8.190;2023-06-14T04:21:17;10.98;;;3.20;;
66012;SDS011;52783;50.502;8.190;2023-06-14T04:23:43;9.50;;;3.45;;
66012;SDS011;52783;50.502;8.190;2023-06-14T04:26:09;8.95;;;3.53;;
66012;SDS011;52783;50.502;8.190;2023-06-14T04:28:35;10.40;;;3.30;;
66012;SDS011;52783;50.502;8.190;2023-06-14T04:31:06;9.05;;;3.50;;
66012;SDS011;52783;50.502;8.190;2023-06-14T04:33:33;5.72;;;3.20;;
66012;SDS011;52783;50.502;8.190;2023-06-14T04:36:08;7.88;;;3.15;;
66012;SDS011;52783;50.502;8.190;2023-06-14T04:38:38;3.80;;;3.00;;
66012;SDS011;52783;50.502;8.190;2023-06-14T04:41:03;16.65;;;3.20;;
66012;SDS011;52783;50.502;8.190;2023-06-14T04:43:29;7.15;;;2.95;;
66012;SDS011;52783;50.502;8.190;2023-06-14T04:45:56;9.88;;;3.10;;
66012;SDS011;52783;50.502;8.190;2023-06-14T04:48:22;6.75;;;3.15;;
66012;SDS011;52783;50.502;8.190;2023-06-14T04:50:48;6.90;;;3.28;;
66012;SDS011;52783;50.502;8.190;2023-06-14T04:53:17;4.28;;;3.08;;
66012;SDS011;52783;50.502;8.190;2023-06-14T04:55:46;7.70;;;3.03;;
66012;SDS011;52783;50.502;8.190;2023-06-14T04:58:12;9.27;;;3.15;;
66012;SDS011;52783;50.502;8.190;2023-06-14T05:00:38;7.47;;;3.03;;
66012;SDS011;52783;50.502;8.190;2023-06-14T05:03:03;4.53;;;3.00;;
66012;SDS011;52783;50.502;8.190;2023-06-14T05:05:30;3.22;;;2.88;;
66012;SDS011;52783;50.502;8.190;2023-06-14T05:07:57;7.80;;;3.28;;
66012;SDS011;52783;50.502;8.190;2023-06-14T05:10:22;4.68;;;3.40;;
66012;SDS011;52783;50.502;8.190;2023-06-14T05:12:49;10.90;;;3.17;;
66012;SDS011;52783;50.502;8.190;2023-06-14T05:15:15;10.25;;;3.20;;
66012;SDS011;52783;50.502;8.190;2023-06-14T05:17:40;3.85;;;2.78;;
66012;SDS011;52783;50.502;8.190;2023-06-14T05:20:07;6.50;;;2.80;;
66012;SDS011;52783;50.502;8.190;2023-06-14T05:22:35;6.20;;;2.80;;
66012;SDS011;52783;50.502;8.190;2023-06-14T05:25:00;7.13;;;3.30;;
66012;SDS011;52783;50.502;8.190;2023-06-14T05:27:26;11.30;;;3.00;;
66012;SDS011;52783;50.502;8.190;2023-06-14T05:29:52;17.20;;;3.70;;
66012;SDS011;52783;50.502;8.190;2023-06-14T05:32:20;7.78;;;2.75;;
66012;SDS011;52783;50.502;8.190;2023-06-14T05:34:46;11.63;;;3.00;;
66012;SDS011;52783;50.502;8.190;2023-06-14T05:37:11;16.83;;;3.05;;
66012;SDS011;52783;50.502;8.190;2023-06-14T05:39:38;17.90;;;3.97;;
66012;SDS011;52783;50.502;8.190;2023-06-14T05:42:03;14.00;;;3.70;;
66012;SDS011;52783;50.502;8.190;2023-06-14T05:44:29;39.80;;;4.15;;
66012;SDS011;52783;50.502;8.190;2023-06-14T05:46:55;9.18;;;2.88;;
66012;SDS011;52783;50.502;8.190;2023-06-14T05:49:20;13.38;;;3.35;;
66012;SDS011;52783;50.502;8.190;2023-06-14T05:51:45;3.78;;;2.75;;
66012;SDS011;52783;50.502;8.190;2023-06-14T05:54:11;8.80;;;3.40;;
66012;SDS011;52783;50.502;8.190;2023-06-14T05:56:36;9.98;;;3.13;;
66012;SDS011;52783;50.502;8.190;2023-06-14T05:59:02;9.93;;;3.00;;
66012;SDS011;52783;50.502;8.190;2023-06-14T06:01:27;10.10;;;3.38;;
66012;SDS011;52783;50.502;8.190;2023-06-14T06:03:53;9.18;;;3.25;;
66012;SDS011;52783;50.502;8.190;2023-06-14T06:06:18;6.93;;;2.83;;
66012;SDS011;52783;50.502;8.190;2023-06-14T06:08:44;10.43;;;3.30;;
66012;SDS011;52783;50.502;8.190;2023-06-14T06:11:10;10.70;;;2.83;;
66012;SDS011;52783;50.502;8.190;2023-06-14T06:13:35;9.95;;;3.15;;
66012;SDS011;52783;50.502;8.190;2023-06-14T06:16:02;10.55;;;3.33;;
66012;SDS011;52783;50.502;8.190;2023-06-14T06:18:28;6.78;;;3.25;;
66012;SDS011;52783;50.502;8.190;2023-06-14T06:20:53;8.25;;;3.20;;
66012;SDS011;52783;50.502;8.190;2023-06-14T06:23:19;14.68;;;3.60;;
66012;SDS011;52783;50.502;8.190;2023-06-14T06:25:44;19.75;;;3.60;;
66012;SDS011;52783;50.502;8.190;2023-06-14T06:28:10;15.52;;;3.42;;
66012;SDS011;52783;50.502;8.190;2023-06-14T06:30:36;5.20;;;2.83;;
66012;SDS011;52783;50.502;8.190;2023-06-14T06:33:01;11.48;;;3.00;;
66012;SDS011;52783;50.502;8.190;2023-06-14T06:35:28;14.68;;;3.42;;
66012;SDS011;52783;50.502;8.190;2023-06-14T06:37:54;7.07;;;5.07;;
66012;SDS011;52783;50.502;8.190;2023-06-14T06:40:20;12.77;;;2.95;;
66012;SDS011;52783;50.502;8.190;2023-06-14T06:42:46;8.45;;;2.90;;
66012;SDS011;52783;50.502;8.190;2023-06-14T06:45:11;5.53;;;3.03;;
66012;SDS011;52783;50.502;8.190;2023-06-14T06:47:37;9.13;;;2.92;;
66012;SDS011;52783;50.502;8.190;2023-06-14T06:50:02;10.45;;;3.20;;
66012;SDS011;52783;50.502;8.190;2023-06-14T06:52:28;6.07;;;2.60;;
66012;SDS011;52783;50.502;8.190;2023-06-14T06:54:54;15.07;;;3.55;;
66012;SDS011;52783;50.502;8.190;2023-06-14T06:57:21;21.70;;;3.28;;
66012;SDS011;52783;50.502;8.190;2023-06-14T06:59:49;8.30;;;2.80;;
66012;SDS011;52783;50.502;8.190;2023-06-14T07:02:15;8.95;;;2.75;;
66012;SDS011;52783;50.502;8.190;2023-06-14T07:04:40;10.70;;;2.88;;
66012;SDS011;52783;50.502;8.190;2023-06-14T07:07:06;8.77;;;2.72;;
66012;SDS011;52783;50.502;8.190;2023-06-14T07:09:34;23.70;;;3.55;;
66012;SDS011;52783;50.502;8.190;2023-06-14T07:12:00;7.05;;;2.92;;
66012;SDS011;52783;50.502;8.190;2023-06-14T07:14:25;7.75;;;3.30;;
66012;SDS011;52783;50.502;8.190;2023-06-14T07:16:51;15.40;;;3.03;;
66012;SDS011;52783;50.502;8.190;2023-06-14T07:19:16;16.17;;;2.67;;
66012;SDS011;52783;50.502;8.190;2023-06-14T07:21:42;10.98;;;2.90;;
66012;SDS011;52783;50.502;8.190;2023-06-14T07:24:08;5.20;;;2.50;;
66012;SDS011;52783;50.502;8.190;2023-06-14T07:26:33;7.00;;;2.35;;
66012;SDS011;52783;50.502;8.190;2023-06-14T07:29:00;13.43;;;3.08;;
66012;SDS011;52783;50.502;8.190;2023-06-14T07:31:26;8.98;;;2.50;;
66012;SDS011;52783;50.502;8.190;2023-06-14T07:33:52;3.20;;;2.53;;
66012;SDS011;52783;50.502;8.190;2023-06-14T07:36:17;9.68;;;2.92;;
66012;SDS011;52783;50.502;8.190;2023-06-14T07:38:43;6.13;;;2.85;;
66012;SDS011;52783;50.502;8.190;2023-06-14T07:41:09;8.50;;;2.72;;
66012;SDS011;52783;50.502;8.190;2023-06-14T07:43:34;2.72;;;2.20;;
66012;SDS011;52783;50.502;8.190;2023-06-14T07:46:00;10.13;;;2.78;;
66012;SDS011;52783;50.502;8.190;2023-06-14T07:48:27;10.50;;;2.80;;
66012;SDS011;52783;50.502;8.190;2023-06-14T07:50:52;5.70;;;2.60;;
66012;SDS011;52783;50.502;8.190;2023-06-14T07:53:18;6.22;;;2.10;;
66012;SDS011;52783;50.502;8.190;2023-06-14T07:55:43;11.48;;;2.53;;
66012;SDS011;52783;50.502;8.190;2023-06-14T07:58:09;11.73;;;2.30;;
66012;SDS011;52783;50.502;8.190;2023-06-14T08:00:35;7.72;;;2.35;;
66012;SDS011;52783;50.502;8.190;2023-06-14T08:03:01;4.78;;;2.30;;
66012;SDS011;52783;50.502;8.190;2023-06-14T08:05:27;15.48;;;2.10;;
66012;SDS011;52783;50.502;8.190;2023-06-14T08:07:53;9.52;;;2.33;;
66012;SDS011;52783;50.502;8.190;2023-06-14T08:10:19;6.80;;;2.67;;
66012;SDS011;52783;50.502;8.190;2023-06-14T08:12:45;8.73;;;2.42;;
66012;SDS011;52783;50.502;8.190;2023-06-14T08:15:10;12.10;;;2.22;;
66012;SDS011;52783;50.502;8.190;2023-06-14T08:17:36;5.32;;;2.15;;
66012;SDS011;52783;50.502;8.190;2023-06-14T08:20:02;5.95;;;2.58;;
66012;SDS011;52783;50.502;8.190;2023-06-14T08:22:29;4.10;;;2.17;;
66012;SDS011;52783;50.502;8.190;2023-06-14T08:24:58;7.63;;;2.40;;
66012;SDS011;52783;50.502;8.190;2023-06-14T08:27:24;3.00;;;2.20;;
66012;SDS011;52783;50.502;8.190;2023-06-14T08:29:50;7.82;;;2.38;;
66012;SDS011;52783;50.502;8.190;2023-06-14T08:32:16;14.38;;;2.20;;
66012;SDS011;52783;50.502;8.190;2023-06-14T08:34:41;3.35;;;1.98;;
66012;SDS011;52783;50.502;8.190;2023-06-14T08:37:07;11.82;;;2.28;;
66012;SDS011;52783;50.502;8.190;2023-06-14T08:39:32;2.33;;;2.10;;
66012;SDS011;52783;50.502;8.190;2023-06-14T08:41:58;2.67;;;2.08;;
66012;SDS011;52783;50.502;8.190;2023-06-14T08:44:27;6.35;;;2.63;;
66012;SDS011;52783;50.502;8.190;2023-06-14T08:46:53;3.95;;;1.85;;
66012;SDS011;52783;50.502;8.190;2023-06-14T08:49:22;3.88;;;2.17;;
66012;SDS011;52783;50.502;8.190;2023-06-14T08:51:48;4.93;;;1.80;;
66012;SDS011;52783;50.502;8.190;2023-06-14T08:54:18;9.65;;;1.77;;
66012;SDS011;52783;50.502;8.190;2023-06-14T08:56:45;11.70;;;2.10;;
66012;SDS011;52783;50.502;8.190;2023-06-14T08:59:13;1.80;;;1.52;;
66012;SDS011;52783;50.502;8.190;2023-06-14T09:01:40;3.80;;;2.30;;
66012;SDS011;52783;50.502;8.190;2023-06-14T09:04:05;4.25;;;1.90;;
66012;SDS011;52783;50.502;8.190;2023-06-14T09:06:31;1.70;;;1.60;;
66012;SDS011;52783;50.502;8.190;2023-06-14T09:08:57;10.50;;;1.90;;
66012;SDS011;52783;50.502;8.190;2023-06-14T09:11:23;3.65;;;1.70;;
66012;SDS011;52783;50.502;8.190;2023-06-14T09:13:51;1.77;;;1.67;;
66012;SDS011;52783;50.502;8.190;2023-06-14T09:16:16;5.35;;;1.88;;
66012;SDS011;52783;50.502;8.190;2023-06-14T09:18:43;9.40;;;2.35;;
66012;SDS011;52783;50.502;8.190;2023-06-14T09:21:11;9.85;;;2.00;;
66012;SDS011;52783;50.502;8.190;2023-06-14T09:23:37;3.35;;;1.65;;
66012;SDS011;52783;50.502;8.190;2023-06-14T09:26:08;7.95;;;1.75;;
66012;SDS011;52783;50.502;8.190;2023-06-14T09:28:35;6.47;;;2.10;;
66012;SDS011;52783;50.502;8.190;2023-06-14T09:31:01;5.22;;;2.05;;
66012;SDS011;52783;50.502;8.190;2023-06-14T09:33:27;4.60;;;1.98;;
66012;SDS011;52783;50.502;8.190;2023-06-14T09:35:53;5.43;;;2.20;;
66012;SDS011;52783;50.502;8.190;2023-06-14T09:38:19;10.40;;;2.20;;
66012;SDS011;52783;50.502;8.190;2023-06-14T09:40:45;6.35;;;2.15;;
66012;SDS011;52783;50.502;8.190;2023-06-14T09:43:11;10.55;;;2.47;;
66012;SDS011;52783;50.502;8.190;2023-06-14T09:45:38;7.55;;;2.17;;
66012;SDS011;52783;50.502;8.190;2023-06-14T09:48:04;7.22;;;2.20;;
66012;SDS011;52783;50.502;8.190;2023-06-14T09:50:32;9.23;;;2.40;;
66012;SDS011;52783;50.502;8.190;2023-06-14T09:53:01;2.78;;;2.20;;
66012;SDS011;52783;50.502;8.190;2023-06-14T09:55:30;3.05;;;1.95;;
66012;SDS011;52783;50.502;8.190;2023-06-14T09:58:00;4.18;;;1.98;;
66012;SDS011;52783;50.502;8.190;2023-06-14T10:00:29;8.25;;;2.08;;
66012;SDS011;52783;50.502;8.190;2023-06-14T10:02:59;4.65;;;2.17;;
66012;SDS011;52783;50.502;8.190;2023-06-14T10:05:28;4.18;;;1.80;;
66012;SDS011;52783;50.502;8.190;2023-06-14T10:08:05;7.32;;;2.72;;
66012;SDS011;52783;50.502;8.190;2023-06-14T10:10:34;2.83;;;2.30;;
66012;SDS011;52783;50.502;8.190;2023-06-14T10:13:00;3.65;;;2.15;;
66012;SDS011;52783;50.502;8.190;2023-06-14T10:15:37;4.85;;;2.65;;
66012;SDS011;52783;50.502;8.190;2023-06-14T10:18:10;4.60;;;1.98;;
66012;SDS011;52783;50.502;8.190;2023-06-14T10:20:58;10.07;;;2.42;;
66012;SDS011;52783;50.502;8.190;2023-06-14T10:23:45;3.67;;;1.80;;
66012;SDS011;52783;50.502;8.190;2023-06-14T10:26:18;2.20;;;2.00;;
66012;SDS011;52783;50.502;8.190;2023-06-14T10:31:41;5.75;;;2.30;;
66012;SDS011;52783;50.502;8.190;2023-06-14T10:34:11;7.72;;;2.20;;
66012;SDS011;52783;50.502;8.190;2023-06-14T10:36:37;4.07;;;2.42;;
66012;SDS011;52783;50.502;8.190;2023-06-14T10:39:07;6.88;;;2.38;;
66012;SDS011;52783;50.502;8.190;2023-06-14T10:41:37;7.93;;;2.65;;
66012;SDS011;52783;50.502;8.190;2023-06-14T10:44:10;3.63;;;2.50;;
66012;SDS011;52783;50.502;8.190;2023-06-14T10:46:48;4.78;;;2.38;;
66012;SDS011;52783;50.502;8.190;2023-06-14T10:49:18;3.00;;;2.22;;
66012;SDS011;52783;50.502;8.190;2023-06-14T10:51:44;3.63;;;2.33;;
66012;SDS011;52783;50.502;8.190;2023-06-14T10:54:14;9.63;;;2.40;;
66012;SDS011;52783;50.502;8.190;2023-06-14T10:56:45;4.63;;;2.42;;
66012;SDS011;52783;50.502;8.190;2023-06-14T10:59:12;3.65;;;2.40;;
66012;SDS011;52783;50.502;8.190;2023-06-14T11:01:51;2.70;;;2.40;;
66012;SDS011;52783;50.502;8.190;2023-06-14T11:04:23;3.15;;;2.38;;
66012;SDS011;52783;50.502;8.190;2023-06-14T11:07:21;3.13;;;2.10;;
66012;SDS011;52783;50.502;8.190;2023-06-14T11:10:03;11.32;;;2.33;;
66012;SDS011;52783;50.502;8.190;2023-06-14T11:12:31;2.90;;;2.20;;
66012;SDS011;52783;50.502;8.190;2023-06-14T11:15:00;11.30;;;2.70;;
66012;SDS011;52783;50.502;8.190;2023-06-14T11:17:26;3.00;;;2.25;;
66012;SDS011;52783;50.502;8.190;2023-06-14T11:20:06;5.75;;;2.15;;
66012;SDS011;52783;50.502;8.190;2023-06-14T11:22:38;5.07;;;2.25;;
66012;SDS011;52783;50.502;8.190;2023-06-14T11:25:08;6.60;;;2.47;;
66012;SDS011;52783;50.502;8.190;2023-06-14T11:27:34;2.72;;;2.10;;
66012;SDS011;52783;50.502;8.190;2023-06-14T11:30:00;2.45;;;1.98;;
66012;SDS011;52783;50.502;8.190;2023-06-14T11:32:50;17.90;;;2.60;;
66012;SDS011;52783;50.502;8.190;2023-06-14T11:35:17;43.63;;;4.22;;
66012;SDS011;52783;50.502;8.190;2023-06-14T11:37:43;16.48;;;2.33;;
66012;SDS011;52783;50.502;8.190;2023-06-14T11:40:09;2.83;;;2.08;;
66012;SDS011;52783;50.502;8.190;2023-06-14T11:42:36;68.95;;;3.40;;
66012;SDS011;52783;50.502;8.190;2023-06-14T11:45:03;5.25;;;2.33;;
66012;SDS011;52783;50.502;8.190;2023-06-14T11:47:32;11.43;;;2.25;;
66012;SDS011;52783;50.502;8.190;2023-06-14T11:49:58;4.05;;;2.30;;
66012;SDS011;52783;50.502;8.190;2023-06-14T11:52:24;3.53;;;2.10;;
66012;SDS011;52783;50.502;8.190;2023-06-14T11:54:50;2.67;;;2.20;;
66012;SDS011;52783;50.502;8.190;2023-06-14T11:57:17;7.45;;;1.95;;
66012;SDS011;52783;50.502;8.190;2023-06-14T11:59:44;47.97;;;3.65;;
66012;SDS011;52783;50.502;8.190;2023-06-14T12:02:19;2.45;;;2.25;;
66012;SDS011;52783;50.502;8.190;2023-06-14T12:04:46;2.20;;;2.00;;
66012;SDS011;52783;50.502;8.190;2023-06-14T12:07:15;2.35;;;2.03;;
66012;SDS011;52783;50.502;8.190;2023-06-14T12:12:23;2.25;;;2.05;;
66012;SDS011;52783;50.502;8.190;2023-06-14T12:14:52;2.30;;;2.10;;
66012;SDS011;52783;50.502;8.190;2023-06-14T12:17:20;6.78;;;2.28;;
66012;SDS011;52783;50.502;8.190;2023-06-14T12:19:45;4.53;;;2.42;;
66012;SDS011;52783;50.502;8.190;2023-06-14T12:22:12;4.70;;;2.30;;
66012;SDS011;52783;50.502;8.190;2023-06-14T12:24:38;2.83;;;2.20;;
66012;SDS011;52783;50.502;8.190;2023-06-14T12:27:04;4.80;;;2.05;;
66012;SDS011;52783;50.502;8.190;2023-06-14T12:29:33;19.38;;;3.22;;
66012;SDS011;52783;50.502;8.190;2023-06-14T12:32:00;3.72;;;2.00;;
66012;SDS011;52783;50.502;8.190;2023-06-14T12:34:25;5.13;;;2.30;;
66012;SDS011;52783;50.502;8.190;2023-06-14T12:36:55;7.70;;;2.28;;
66012;SDS011;52783;50.502;8.190;2023-06-14T12:39:21;4.10;;;2.30;;
66012;SDS011;52783;50.502;8.190;2023-06-14T12:41:46;15.60;;;2.30;;
66012;SDS011;52783;50.502;8.190;2023-06-14T12:44:13;2.10;;;2.00;;
66012;SDS011;52783;50.502;8.190;2023-06-14T12:46:40;2.63;;;1.95;;
66012;SDS011;52783;50.502;8.190;2023-06-14T12:49:12;4.88;;;2.08;;
66012;SDS011;52783;50.502;8.190;2023-06-14T12:51:38;6.35;;;2.20;;
66012;SDS011;52783;50.502;8.190;2023-06-14T12:54:05;2.63;;;1.95;;
66012;SDS011;52783;50.502;8.190;2023-06-14T12:56:31;7.00;;;2.17;;
66012;SDS011;52783;50.502;8.190;2023-06-14T12:58:57;15.25;;;2.63;;
66012;SDS011;52783;50.502;8.190;2023-06-14T13:01:23;4.82;;;2.15;;
66012;SDS011;52783;50.502;8.190;2023-06-14T13:03:48;3.60;;;2.20;;
66012;SDS011;52783;50.502;8.190;2023-06-14T13:06:16;7.55;;;2.00;;
66012;SDS011;52783;50.502;8.190;2023-06-14T13:08:42;4.03;;;2.45;;
66012;SDS011;52783;50.502;8.190;2023-06-14T13:11:08;5.95;;;2.00;;
66012;SDS011;52783;50.502;8.190;2023-06-14T13:13:34;8.50;;;2.30;;
66012;SDS011;52783;50.502;8.190;2023-06-14T13:15:59;4.07;;;2.53;;
66012;SDS011;52783;50.502;8.190;2023-06-14T13:18:25;3.30;;;2.67;;
66012;SDS011;52783;50.502;8.190;2023-06-14T13:20:51;7.32;;;2.28;;
66012;SDS011;52783;50.502;8.190;2023-06-14T13:23:16;12.00;;;2.60;;
66012;SDS011;52783;50.502;8.190;2023-06-14T13:25:42;12.13;;;3.03;;
66012;SDS011;52783;50.502;8.190;2023-06-14T13:28:08;24.95;;;3.15;;
66012;SDS011;52783;50.502;8.190;2023-06-14T13:30:34;13.93;;;3.17;;
66012;SDS011;52783;50.502;8.190;2023-06-14T13:33:00;11.15;;;2.35;;
66012;SDS011;52783;50.502;8.190;2023-06-14T13:35:25;12.40;;;2.30;;
66012;SDS011;52783;50.502;8.190;2023-06-14T13:37:51;8.50;;;2.38;;
66012;SDS011;52783;50.502;8.190;2023-06-14T13:40:17;18.23;;;2.30;;
66012;SDS011;52783;50.502;8.190;2023-06-14T13:42:43;5.90;;;2.40;;
66012;SDS011;52783;50.502;8.190;2023-06-14T13:45:09;5.10;;;2.63;;
66012;SDS011;52783;50.502;8.190;2023-06-14T13:47:36;2.15;;;2.05;;
66012;SDS011;52783;50.502;8.190;2023-06-14T13:50:02;5.53;;;2.30;;
66012;SDS011;52783;50.502;8.190;2023-06-14T13:52:28;2.65;;;2.10;;
66012;SDS011;52783;50.502;8.190;2023-06-14T13:54:54;6.72;;;2.35;;
66012;SDS011;52783;50.502;8.190;2023-06-14T13:57:19;7.53;;;2.33;;
66012;SDS011;52783;50.502;8.190;2023-06-14T13:59:45;5.75;;;2.30;;
66012;SDS011;52783;50.502;8.190;2023-06-14T14:02:11;12.15;;;2.65;;
66012;SDS011;52783;50.502;8.190;2023-06-14T14:04:37;20.63;;;2.83;;
66012;SDS011;52783;50.502;8.190;2023-06-14T14:07:04;5.80;;;2.15;;
66012;SDS011;52783;50.502;8.190;2023-06-14T14:09:31;3.22;;;2.40;;
66012;SDS011;52783;50.502;8.190;2023-06-14T14:11:57;3.83;;;2.50;;
66012;SDS011;52783;50.502;8.190;2023-06-14T14:14:23;2.63;;;2.30;;
66012;SDS011;52783;50.502;8.190;2023-06-14T14:16:49;3.85;;;2.20;;
66012;SDS011;52783;50.502;8.190;2023-06-14T14:19:19;6.28;;;2.40;;
66012;SDS011;52783;50.502;8.190;2023-06-14T14:21:46;2.50;;;2.25;;
66012;SDS011;52783;50.502;8.190;2023-06-14T14:24:12;2.75;;;2.10;;
66012;SDS011;52783;50.502;8.190;2023-06-14T14:26:38;3.55;;;2.30;;
66012;SDS011;52783;50.502;8.190;2023-06-14T14:29:03;4.80;;;2.42;;
66012;SDS011;52783;50.502;8.190;2023-06-14T14:31:29;4.55;;;2.38;;
66012;SDS011;52783;50.502;8.190;2023-06-14T14:33:55;3.88;;;2.30;;
66012;SDS011;52783;50.502;8.190;2023-06-14T14:36:20;2.70;;;2.10;;
66012;SDS011;52783;50.502;8.190;2023-06-14T14:38:46;28.30;;;3.03;;
66012;SDS011;52783;50.502;8.190;2023-06-14T14:41:12;2.45;;;2.25;;
66012;SDS011;52783;50.502;8.190;2023-06-14T14:43:38;5.68;;;2.33;;
66012;SDS011;52783;50.502;8.190;2023-06-14T14:46:03;7.00;;;2.50;;
66012;SDS011;52783;50.502;8.190;2023-06-14T14:48:29;3.08;;;2.33;;